Time,TemperatureF,DewpointF,PressureIn,WindDirection,WindDirectionDegrees,WindSpeedMPH,WindSpeedGustMPH,Humidity,HourlyPrecipIn,Conditions,Clouds,dailyrainin,SoftwareType,DateUTC
2013-01-17 00:03:00,-12.7,-17.4,30.56,NW,325,2.0,4.0,79,0.00,,---,0.00,VWS V13.01,2013-01-17 06:03:00,
2013-01-17 00:08:00,-13.0,-17.6,30.56,NW,325,0.0,4.0,79,0.00,,---,0.00,VWS V13.01,2013-01-17 06:08:00,
2013-01-17 00:13:00,-13.2,-17.8,30.56,NW,325,3.0,4.0,79,0.00,,---,0.00,VWS V13.01,2013-01-17 06:13:00,
2013-01-17 00:19:00,-13.2,-17.8,30.58,NW,325,2.0,3.0,79,0.00,,---,0.00,VWS V13.01,2013-01-17 06:19:00,
2013-01-17 00:24:00,-13.2,-17.8,30.58,WNW,292,0.0,7.0,79,0.00,,---,0.00,VWS V13.01,2013-01-17 06:24:00,
2013-01-17 00:29:00,-13.3,-17.9,30.58,WNW,291,0.0,7.0,79,0.00,,---,0.00,VWS V13.01,2013-01-17 06:29:00,
2013-01-17 00:35:00,-13.5,-18.4,30.58,WNW,286,2.0,4.0,78,0.00,,---,0.00,VWS V13.01,2013-01-17 06:35:00,
2013-01-17 00:40:00,-13.6,-18.5,30.58,WNW,284,3.0,11.0,78,0.00,,---,0.00,VWS V13.01,2013-01-17 06:40:00,
2013-01-17 00:45:00,-13.6,-18.7,30.58,West,278,1.0,11.0,77,0.00,,---,0.00,VWS V13.01,2013-01-17 06:45:00,
2013-01-17 00:50:00,-13.8,-18.9,30.58,West,279,3.0,5.0,77,0.00,,---,0.00,VWS V13.01,2013-01-17 06:50:00,
2013-01-17 00:56:00,-13.7,-18.8,30.58,West,268,4.0,9.0,77,0.00,,---,0.00,VWS V13.01,2013-01-17 06:56:00,
2013-01-17 01:01:00,-13.7,-18.8,30.59,West,273,3.0,9.0,77,0.00,,---,0.00,VWS V13.01,2013-01-17 07:01:00,
2013-01-17 01:06:00,-13.8,-18.9,30.59,WNW,298,3.0,8.0,77,0.00,,---,0.00,VWS V13.01,2013-01-17 07:06:00,
2013-01-17 01:11:00,-13.9,-19.0,30.59,WNW,294,3.0,8.0,77,0.00,,---,0.00,VWS V13.01,2013-01-17 07:11:00,
2013-01-17 01:17:00,-14.0,-19.1,30.60,WNW,294,3.0,4.0,77,0.00,,---,0.00,VWS V13.01,2013-01-17 07:17:00,
2013-01-17 01:22:00,-14.1,-19.2,30.60,NW,308,0.0,6.0,77,0.00,,---,0.00,VWS V13.01,2013-01-17 07:22:00,
2013-01-17 01:27:00,-14.2,-19.3,30.60,NW,309,1.0,6.0,77,0.00,,---,0.00,VWS V13.01,2013-01-17 07:27:00,
2013-01-17 01:32:00,-14.4,-19.5,30.61,NW,309,0.0,1.0,77,0.00,,---,0.00,VWS V13.01,2013-01-17 07:32:00,
2013-01-17 01:38:00,-14.7,-19.8,30.61,NW,309,0.0,1.0,77,0.00,,---,0.00,VWS V13.01,2013-01-17 07:38:00,
2013-01-17 01:43:00,-15.0,-20.1,30.61,NW,309,0.0,2.0,77,0.00,,---,0.00,VWS V13.01,2013-01-17 07:43:00,
2013-01-17 01:48:00,-15.2,-20.0,30.63,NW,309,0.0,2.0,78,0.00,,---,0.00,VWS V13.01,2013-01-17 07:48:00,
2013-01-17 01:53:00,-15.5,-20.3,30.63,NW,309,2.0,2.0,78,0.00,,---,0.00,VWS V13.01,2013-01-17 07:53:00,
2013-01-17 01:59:00,-15.7,-20.5,30.63,NW,308,4.0,4.0,78,0.00,,---,0.00,VWS V13.01,2013-01-17 07:59:00,
2013-01-17 02:04:00,-15.9,-20.7,30.64,NW,307,1.0,1.0,78,0.00,,---,0.00,VWS V13.01,2013-01-17 08:04:00,
2013-01-17 02:09:00,-16.0,-20.8,30.64,NW,307,1.0,4.0,78,0.00,,---,0.00,VWS V13.01,2013-01-17 08:09:00,
2013-01-17 02:14:00,-16.0,-20.6,30.64,NW,306,1.0,4.0,79,0.00,,---,0.00,VWS V13.01,2013-01-17 08:14:00,
2013-01-17 02:20:00,-16.0,-20.6,30.67,NW,306,1.0,1.0,79,0.00,,---,0.00,VWS V13.01,2013-01-17 08:20:00,
2013-01-17 02:25:00,-16.0,-20.6,30.67,NW,306,1.0,5.0,79,0.00,,---,0.00,VWS V13.01,2013-01-17 08:25:00,
2013-01-17 02:30:00,-16.1,-20.9,30.67,NW,306,0.0,5.0,78,0.00,,---,0.00,VWS V13.01,2013-01-17 08:30:00,
2013-01-17 02:35:00,-16.2,-21.0,30.67,NW,306,0.0,2.0,78,0.00,,---,0.00,VWS V13.01,2013-01-17 08:35:00,
2013-01-17 02:40:00,-16.4,-21.2,30.67,NW,306,0.0,2.0,78,0.00,,---,0.00,VWS V13.01,2013-01-17 08:40:00,
2013-01-17 02:46:00,-16.6,-21.4,30.69,NW,306,0.0,2.0,78,0.00,,---,0.00,VWS V13.01,2013-01-17 08:46:00,
2013-01-17 02:51:00,-17.1,-22.1,30.69,NW,306,0.0,0.0,77,0.00,,---,0.00,VWS V13.01,2013-01-17 08:51:00,
2013-01-17 02:56:00,-17.6,-22.9,30.69,NW,306,0.0,0.0,76,0.00,,---,0.00,VWS V13.01,2013-01-17 08:56:00,
2013-01-17 03:01:00,-18.0,-23.0,30.69,NW,306,0.0,1.0,77,0.00,,---,0.00,VWS V13.01,2013-01-17 09:01:00,
2013-01-17 03:06:00,-18.1,-22.9,30.69,NW,306,0.0,0.0,78,0.00,,---,0.00,VWS V13.01,2013-01-17 09:06:00,
2013-01-17 03:12:00,-18.2,-23.2,30.69,NW,306,0.0,0.0,77,0.00,,---,0.00,VWS V13.01,2013-01-17 09:12:00,
2013-01-17 03:17:00,-18.7,-23.9,30.73,NW,306,0.0,0.0,76,0.00,,---,0.00,VWS V13.01,2013-01-17 09:17:00,
2013-01-17 03:22:00,-19.3,-24.5,30.73,NW,306,0.0,0.0,76,0.00,,---,0.00,VWS V13.01,2013-01-17 09:22:00,
2013-01-17 03:27:00,-19.9,-25.1,30.73,NW,306,0.0,0.0,76,0.00,,---,0.00,VWS V13.01,2013-01-17 09:27:00,
2013-01-17 03:32:00,-20.4,-25.8,30.74,NW,306,0.0,0.0,75,0.00,,---,0.00,VWS V13.01,2013-01-17 09:32:00,
2013-01-17 03:38:00,-20.7,-25.9,30.74,NW,306,0.0,0.0,76,0.00,,---,0.00,VWS V13.01,2013-01-17 09:38:00,
2013-01-17 03:43:00,-20.9,-26.1,30.74,NW,306,0.0,0.0,76,0.00,,---,0.00,VWS V13.01,2013-01-17 09:43:00,
2013-01-17 03:48:00,-21.5,-26.7,30.74,NW,306,0.0,0.0,76,0.00,,---,0.00,VWS V13.01,2013-01-17 09:48:00,
2013-01-17 03:53:00,-21.9,-27.0,30.74,NW,306,0.0,0.0,76,0.00,,---,0.00,VWS V13.01,2013-01-17 09:53:00,
2013-01-17 03:59:00,-22.1,-27.2,30.74,NW,306,0.0,0.0,76,0.00,,---,0.00,VWS V13.01,2013-01-17 09:59:00,
2013-01-17 04:04:00,-22.3,-27.4,30.76,NW,306,0.0,0.0,76,0.00,,---,0.00,VWS V13.01,2013-01-17 10:04:00,
2013-01-17 04:09:00,-22.5,-27.6,30.76,NW,306,0.0,0.0,76,0.00,,---,0.00,VWS V13.01,2013-01-17 10:09:00,
2013-01-17 04:14:00,-22.6,-27.5,30.76,NW,306,0.0,0.0,77,0.00,,---,0.00,VWS V13.01,2013-01-17 10:14:00,
2013-01-17 04:20:00,-22.3,-27.0,30.79,NW,306,0.0,1.0,78,0.00,,---,0.00,VWS V13.01,2013-01-17 10:20:00,
2013-01-17 04:25:00,-21.6,-26.0,30.79,NW,306,4.0,4.0,79,0.00,,---,0.00,VWS V13.01,2013-01-17 10:25:00,
2013-01-17 04:30:00,-20.8,-25.3,30.79,NW,306,0.0,4.0,79,0.00,,---,0.00,VWS V13.01,2013-01-17 10:30:00,
2013-01-17 04:35:00,-20.7,-25.4,30.78,NW,306,0.0,0.0,78,0.00,,---,0.00,VWS V13.01,2013-01-17 10:35:00,
2013-01-17 04:40:00,-21.0,-25.9,30.78,NW,306,0.0,1.0,77,0.00,,---,0.00,VWS V13.01,2013-01-17 10:40:00,
2013-01-17 04:45:00,-21.2,-26.1,30.78,NW,306,0.0,1.0,77,0.00,,---,0.00,VWS V13.01,2013-01-17 10:45:00,
2013-01-17 04:51:00,-21.2,-25.9,30.78,NW,306,0.0,1.0,78,0.00,,---,0.00,VWS V13.01,2013-01-17 10:51:00,
2013-01-17 04:56:00,-21.1,-25.8,30.78,NW,306,0.0,1.0,78,0.00,,---,0.00,VWS V13.01,2013-01-17 10:56:00,
2013-01-17 05:01:00,-21.0,-25.7,30.78,NW,306,0.0,1.0,78,0.00,,---,0.00,VWS V13.01,2013-01-17 11:01:00,
2013-01-17 05:06:00,-21.2,-26.1,30.78,NW,306,0.0,0.0,77,0.00,,---,0.00,VWS V13.01,2013-01-17 11:06:00,
2013-01-17 05:11:00,-21.3,-26.2,30.78,NW,306,0.0,0.0,77,0.00,,---,0.00,VWS V13.01,2013-01-17 11:11:00,
2013-01-17 05:16:00,-21.4,-26.3,30.82,NW,306,0.0,0.0,77,0.00,,---,0.00,VWS V13.01,2013-01-17 11:16:00,
2013-01-17 05:21:00,-21.6,-26.5,30.82,NW,306,0.0,0.0,77,0.00,,---,0.00,VWS V13.01,2013-01-17 11:21:00,
2013-01-17 05:26:00,-21.7,-26.6,30.82,NW,306,0.0,0.0,77,0.00,,---,0.00,VWS V13.01,2013-01-17 11:26:00,
2013-01-17 05:31:00,-22.0,-27.1,30.81,NW,306,0.0,0.0,76,0.00,,---,0.00,VWS V13.01,2013-01-17 11:31:00,
2013-01-17 05:37:00,-22.3,-27.4,30.81,NW,306,0.0,0.0,76,0.00,,---,0.00,VWS V13.01,2013-01-17 11:37:00,
2013-01-17 05:42:00,-22.4,-27.5,30.81,NW,306,0.0,0.0,76,0.00,,---,0.00,VWS V13.01,2013-01-17 11:42:00,
2013-01-17 05:47:00,-22.4,-27.5,30.81,NW,306,0.0,0.0,76,0.00,,---,0.00,VWS V13.01,2013-01-17 11:47:00,
2013-01-17 05:52:00,-22.3,-27.4,30.81,NW,306,0.0,0.0,76,0.00,,---,0.00,VWS V13.01,2013-01-17 11:52:00,
2013-01-17 05:58:00,-22.3,-27.2,30.81,NW,306,0.0,0.0,77,0.00,,---,0.00,VWS V13.01,2013-01-17 11:58:00,
2013-01-17 06:16:00,-22.2,-27.3,30.85,NW,306,0.0,0.0,76,0.00,,---,0.00,VWS V13.01,2013-01-17 12:16:00,
2013-01-17 06:31:00,-21.9,-26.8,30.85,NW,306,0.0,0.0,77,0.00,,---,0.00,VWS V13.01,2013-01-17 12:31:00,
2013-01-17 06:46:00,-20.9,-25.6,30.83,NW,306,0.0,0.0,78,0.00,,---,0.00,VWS V13.01,2013-01-17 12:46:00,
2013-01-17 07:01:00,-18.7,-23.2,30.82,NW,306,0.0,2.0,79,0.00,,---,0.00,VWS V13.01,2013-01-17 13:01:00,
2013-01-17 07:06:00,-18.2,-22.7,30.82,NW,306,0.0,1.0,79,0.00,,---,0.00,VWS V13.01,2013-01-17 13:06:00,
2013-01-17 07:11:00,-18.0,-22.5,30.82,NW,306,0.0,1.0,79,0.00,,---,0.00,VWS V13.01,2013-01-17 13:11:00,
2013-01-17 07:16:00,-17.8,-22.3,30.84,NW,306,0.0,1.0,79,0.00,,---,0.00,VWS V13.01,2013-01-17 13:16:00,
2013-01-17 07:21:00,-17.7,-22.5,30.84,NW,306,0.0,0.0,78,0.00,,---,0.00,VWS V13.01,2013-01-17 13:21:00,
2013-01-17 07:27:00,-17.6,-22.4,30.84,NW,306,0.0,1.0,78,0.00,,---,0.00,VWS V13.01,2013-01-17 13:27:00,
2013-01-17 07:32:00,-17.5,-22.3,30.84,NW,306,0.0,0.0,78,0.00,,---,0.00,VWS V13.01,2013-01-17 13:32:00,
2013-01-17 07:37:00,-17.5,-22.0,30.84,NW,306,1.0,2.0,79,0.00,,---,0.00,VWS V13.01,2013-01-17 13:37:00,
2013-01-17 07:42:00,-17.3,-21.8,30.84,NW,306,0.0,2.0,79,0.00,,---,0.00,VWS V13.01,2013-01-17 13:42:00,
2013-01-17 07:48:00,-17.1,-21.6,30.84,NW,306,1.0,1.0,79,0.00,,---,0.00,VWS V13.01,2013-01-17 13:48:00,
2013-01-17 07:53:00,-16.6,-21.2,30.84,West,277,1.0,6.0,79,0.00,,---,0.00,VWS V13.01,2013-01-17 13:53:00,
2013-01-17 07:58:00,-16.1,-20.7,30.84,West,277,0.0,6.0,79,0.00,,---,0.00,VWS V13.01,2013-01-17 13:58:00,
2013-01-17 08:04:00,-15.3,-19.9,30.83,WNW,297,1.0,11.0,79,0.00,,---,0.00,VWS V13.01,2013-01-17 14:04:00,
2013-01-17 08:09:00,-14.3,-18.9,30.83,WNW,284,0.0,11.0,79,0.00,,---,0.00,VWS V13.01,2013-01-17 14:09:00,
2013-01-17 08:14:00,-13.8,-18.7,30.83,West,273,5.0,11.0,78,0.00,,---,0.00,VWS V13.01,2013-01-17 14:14:00,
2013-01-17 08:19:00,-13.6,-18.5,30.84,WNW,288,3.0,10.0,78,0.00,,---,0.00,VWS V13.01,2013-01-17 14:19:00,
2013-01-17 08:25:00,-13.3,-18.7,30.84,NW,306,5.0,12.0,76,0.00,,---,0.00,VWS V13.01,2013-01-17 14:25:00,
2013-01-17 08:30:00,-13.3,-18.9,30.84,WNW,290,2.0,14.0,75,0.00,,---,0.00,VWS V13.01,2013-01-17 14:30:00,
2013-01-17 08:35:00,-13.3,-18.9,30.83,NW,309,1.0,10.0,75,0.00,,---,0.00,VWS V13.01,2013-01-17 14:35:00,
2013-01-17 08:40:00,-13.3,-18.9,30.83,WNW,288,2.0,12.0,75,0.00,,---,0.00,VWS V13.01,2013-01-17 14:40:00,
2013-01-17 08:45:00,-13.2,-18.8,30.83,West,267,5.0,12.0,75,0.00,,---,0.00,VWS V13.01,2013-01-17 14:45:00,
2013-01-17 08:51:00,-13.0,-18.6,30.83,WNW,298,7.0,11.0,75,0.00,,---,0.00,VWS V13.01,2013-01-17 14:51:00,
2013-01-17 08:56:00,-12.9,-18.5,30.83,WNW,298,4.0,12.0,75,0.00,,---,0.00,VWS V13.01,2013-01-17 14:56:00,
2013-01-17 09:01:00,-12.7,-18.6,30.84,WNW,290,6.0,12.0,74,0.00,,---,0.00,VWS V13.01,2013-01-17 15:01:00,
2013-01-17 09:06:00,-12.5,-18.2,30.84,WNW,289,1.0,11.0,75,0.00,,---,0.00,VWS V13.01,2013-01-17 15:06:00,
2013-01-17 09:12:00,-12.1,-18.0,30.84,NNW,330,1.0,13.0,74,0.00,,---,0.00,VWS V13.01,2013-01-17 15:12:00,
2013-01-17 09:17:00,-12.1,-18.3,30.87,West,278,8.0,11.0,73,0.00,,---,0.00,VWS V13.01,2013-01-17 15:17:00,
2013-01-17 09:22:00,-12.1,-18.3,30.87,West,277,4.0,14.0,73,0.00,,---,0.00,VWS V13.01,2013-01-17 15:22:00,
2013-01-17 09:27:00,-11.8,-18.3,30.87,WNW,287,5.0,14.0,72,0.00,,---,0.00,VWS V13.01,2013-01-17 15:27:00,
2013-01-17 09:33:00,-11.7,-18.5,30.87,WNW,287,2.0,11.0,71,0.00,,---,0.00,VWS V13.01,2013-01-17 15:33:00,
2013-01-17 09:38:00,-11.3,-17.8,30.87,NW,314,5.0,11.0,72,0.00,,---,0.00,VWS V13.01,2013-01-17 15:38:00,
2013-01-17 09:43:00,-11.2,-18.0,30.87,WNW,293,7.0,11.0,71,0.00,,---,0.00,VWS V13.01,2013-01-17 15:43:00,
2013-01-17 09:49:00,-10.9,-18.0,30.85,West,263,5.0,13.0,70,0.00,,---,0.00,VWS V13.01,2013-01-17 15:49:00,
2013-01-17 09:54:00,-10.8,-18.1,30.85,WNW,294,10.0,13.0,69,0.00,,---,0.00,VWS V13.01,2013-01-17 15:54:00,
2013-01-17 09:59:00,-10.6,-18.2,30.85,WNW,294,6.0,13.0,68,0.00,,---,0.00,VWS V13.01,2013-01-17 15:59:00,
2013-01-17 10:04:00,-10.3,-17.9,30.87,West,269,10.0,14.0,68,0.00,,---,0.00,VWS V13.01,2013-01-17 16:04:00,
2013-01-17 10:10:00,-10.2,-18.1,30.87,North,5,9.0,14.0,67,0.00,,---,0.00,VWS V13.01,2013-01-17 16:10:00,
2013-01-17 10:15:00,-10.1,-18.3,30.87,NW,322,10.0,14.0,66,0.00,,---,0.00,VWS V13.01,2013-01-17 16:15:00,
2013-01-17 10:20:00,-9.8,-18.0,30.86,West,276,11.0,15.0,66,0.00,,---,0.00,VWS V13.01,2013-01-17 16:20:00,
2013-01-17 10:25:00,-9.5,-17.8,30.86,West,277,2.0,15.0,66,0.00,,---,0.00,VWS V13.01,2013-01-17 16:25:00,
2013-01-17 10:31:00,-9.2,-17.8,30.87,West,270,1.0,15.0,65,0.00,,---,0.00,VWS V13.01,2013-01-17 16:31:00,
2013-01-17 10:36:00,-9.1,-18.0,30.87,West,273,9.0,16.0,64,0.00,,---,0.00,VWS V13.01,2013-01-17 16:36:00,
2013-01-17 10:41:00,-9.0,-17.9,30.87,West,273,7.0,16.0,64,0.00,,---,0.00,VWS V13.01,2013-01-17 16:41:00,
2013-01-17 10:46:00,-8.8,-18.3,30.87,West,278,12.0,16.0,62,0.00,,---,0.00,VWS V13.01,2013-01-17 16:46:00,
2013-01-17 10:51:00,-8.3,-17.8,30.87,West,281,7.0,12.0,62,0.00,,---,0.00,VWS V13.01,2013-01-17 16:51:00,
2013-01-17 10:57:00,-8.0,-17.5,30.87,WNW,295,7.0,13.0,62,0.00,,---,0.00,VWS V13.01,2013-01-17 16:57:00,
2013-01-17 11:02:00,-7.9,-17.8,30.84,NW,319,4.0,11.0,61,0.00,,---,0.00,VWS V13.01,2013-01-17 17:02:00,
2013-01-17 11:07:00,-7.7,-17.6,30.84,West,266,5.0,13.0,61,0.00,,---,0.00,VWS V13.01,2013-01-17 17:07:00,
2013-01-17 11:12:00,-7.7,-17.6,30.84,West,280,4.0,18.0,61,0.00,,---,0.00,VWS V13.01,2013-01-17 17:12:00,
2013-01-17 11:18:00,-7.9,-17.8,30.85,WNW,290,3.0,10.0,61,0.00,,---,0.00,VWS V13.01,2013-01-17 17:18:00,
2013-01-17 11:23:00,-7.7,-17.9,30.85,West,266,7.0,14.0,60,0.00,,---,0.00,VWS V13.01,2013-01-17 17:23:00,
2013-01-17 11:28:00,-7.6,-17.8,30.85,WNW,288,3.0,19.0,60,0.00,,---,0.00,VWS V13.01,2013-01-17 17:28:00,
2013-01-17 11:33:00,-7.2,-17.4,30.85,NW,306,3.0,13.0,60,0.00,,---,0.00,VWS V13.01,2013-01-17 17:33:00,
2013-01-17 11:38:00,-7.3,-17.5,30.85,WNW,283,3.0,18.0,60,0.00,,---,0.00,VWS V13.01,2013-01-17 17:38:00,
2013-01-17 11:44:00,-7.3,-17.2,30.85,West,265,4.0,18.0,61,0.00,,---,0.00,VWS V13.01,2013-01-17 17:44:00,
2013-01-17 11:49:00,-6.9,-17.1,30.85,North,5,7.0,19.0,60,0.00,,---,0.00,VWS V13.01,2013-01-17 17:49:00,
2013-01-17 11:54:00,-6.7,-16.9,30.85,NW,309,5.0,19.0,60,0.00,,---,0.00,VWS V13.01,2013-01-17 17:54:00,
2013-01-17 11:59:00,-6.5,-16.4,30.85,WNW,296,2.0,19.0,61,0.00,,---,0.00,VWS V13.01,2013-01-17 17:59:00,
2013-01-17 12:04:00,-6.3,-16.5,30.83,NW,311,4.0,18.0,60,0.00,,---,0.00,VWS V13.01,2013-01-17 18:04:00,
2013-01-17 12:09:00,-5.9,-16.2,30.83,WNW,284,5.0,18.0,60,0.00,,---,0.00,VWS V13.01,2013-01-17 18:09:00,
2013-01-17 12:15:00,-6.2,-16.5,30.83,WNW,288,11.0,19.0,60,0.00,,---,0.00,VWS V13.01,2013-01-17 18:15:00,
2013-01-17 12:20:00,-6.3,-16.5,30.84,WNW,287,14.0,18.0,60,0.00,,---,0.00,VWS V13.01,2013-01-17 18:20:00,
2013-01-17 12:25:00,-5.8,-15.8,30.84,WNW,296,5.0,18.0,61,0.00,,---,0.00,VWS V13.01,2013-01-17 18:25:00,
2013-01-17 12:30:00,-5.2,-15.5,30.82,West,275,6.0,18.0,60,0.00,,---,0.00,VWS V13.01,2013-01-17 18:30:00,
2013-01-17 12:35:00,-5.2,-15.2,30.82,WNW,295,13.0,16.0,61,0.00,,---,0.00,VWS V13.01,2013-01-17 18:35:00,
2013-01-17 12:41:00,-5.2,-15.5,30.82,NNW,328,7.0,16.0,60,0.00,,---,0.00,VWS V13.01,2013-01-17 18:41:00,
2013-01-17 12:46:00,-5.3,-15.3,30.82,West,277,7.0,17.0,61,0.00,,---,0.00,VWS V13.01,2013-01-17 18:46:00,
2013-01-17 12:51:00,-4.8,-14.5,30.82,WNW,291,5.0,17.0,62,0.00,,---,0.00,VWS V13.01,2013-01-17 18:51:00,
2013-01-17 12:57:00,-4.8,-14.5,30.82,NW,312,10.0,18.0,62,0.00,,---,0.00,VWS V13.01,2013-01-17 18:57:00,
2013-01-17 13:02:00,-4.6,-14.3,30.82,NW,304,7.0,7.0,62,0.00,,---,0.00,VWS V13.01,2013-01-17 19:02:00,
2013-01-17 13:07:00,-4.6,-14.3,30.82,West,263,4.0,17.0,62,0.00,,---,0.00,VWS V13.01,2013-01-17 19:07:00,
2013-01-17 13:12:00,-4.7,-14.4,30.82,West,279,12.0,19.0,62,0.00,,---,0.00,VWS V13.01,2013-01-17 19:12:00,
2013-01-17 13:18:00,-4.5,-13.9,30.83,West,277,13.0,16.0,63,0.00,,---,0.00,VWS V13.01,2013-01-17 19:18:00,
2013-01-17 13:23:00,-4.0,-13.4,30.83,West,275,12.0,16.0,63,0.00,,---,0.00,VWS V13.01,2013-01-17 19:23:00,
2013-01-17 13:28:00,-4.4,-13.8,30.83,West,261,10.0,20.0,63,0.00,,---,0.00,VWS V13.01,2013-01-17 19:28:00,
2013-01-17 13:34:00,-4.6,-13.7,30.83,West,279,3.0,17.0,64,0.00,,---,0.00,VWS V13.01,2013-01-17 19:34:00,
2013-01-17 13:39:00,-4.1,-13.2,30.83,WNW,295,9.0,19.0,64,0.00,,---,0.00,VWS V13.01,2013-01-17 19:39:00,
2013-01-17 13:44:00,-4.0,-13.1,30.83,WNW,284,9.0,21.0,64,0.00,,---,0.00,VWS V13.01,2013-01-17 19:44:00,
2013-01-17 13:49:00,-3.6,-12.7,30.83,NW,309,9.0,14.0,64,0.00,,---,0.00,VWS V13.01,2013-01-17 19:49:00,
2013-01-17 13:54:00,-3.5,-12.6,30.83,West,281,11.0,15.0,64,0.00,,---,0.00,VWS V13.01,2013-01-17 19:54:00,
2013-01-17 14:00:00,-3.5,-12.6,30.83,NW,304,2.0,20.0,64,0.00,,---,0.00,VWS V13.01,2013-01-17 20:00:00,
2013-01-17 14:05:00,-3.4,-12.2,30.81,WNW,303,10.0,17.0,65,0.00,,---,0.00,VWS V13.01,2013-01-17 20:05:00,
2013-01-17 14:10:00,-3.5,-12.3,30.81,NW,325,11.0,17.0,65,0.00,,---,0.00,VWS V13.01,2013-01-17 20:10:00,
2013-01-17 14:15:00,-3.2,-12.0,30.83,NW,306,4.0,17.0,65,0.00,,---,0.00,VWS V13.01,2013-01-17 20:15:00,
2013-01-17 14:21:00,-3.1,-12.2,30.83,WNW,295,10.0,21.0,64,0.00,,---,0.00,VWS V13.01,2013-01-17 20:21:00,
2013-01-17 14:26:00,-3.0,-11.8,30.83,NW,306,11.0,21.0,65,0.00,,---,0.00,VWS V13.01,2013-01-17 20:26:00,
2013-01-17 14:31:00,-2.8,-11.9,30.83,NW,313,6.0,21.0,64,0.00,,---,0.00,VWS V13.01,2013-01-17 20:31:00,
2013-01-17 14:36:00,-2.6,-11.8,30.83,West,263,10.0,19.0,64,0.00,,---,0.00,VWS V13.01,2013-01-17 20:36:00,
2013-01-17 14:42:00,-2.3,-11.5,30.83,West,271,3.0,19.0,64,0.00,,---,0.00,VWS V13.01,2013-01-17 20:42:00,
2013-01-17 14:47:00,-2.4,-11.9,30.83,NW,306,11.0,13.0,63,0.00,,---,0.00,VWS V13.01,2013-01-17 20:47:00,
2013-01-17 14:52:00,-2.5,-11.7,30.83,West,275,4.0,14.0,64,0.00,,---,0.00,VWS V13.01,2013-01-17 20:52:00,
2013-01-17 14:57:00,-2.5,-11.7,30.83,WNW,298,6.0,14.0,64,0.00,,---,0.00,VWS V13.01,2013-01-17 20:57:00,
2013-01-17 15:03:00,-2.5,-11.7,30.84,NW,315,11.0,14.0,64,0.00,,---,0.00,VWS V13.01,2013-01-17 21:03:00,
2013-01-17 15:08:00,-2.6,-11.8,30.84,WNW,286,9.0,14.0,64,0.00,,---,0.00,VWS V13.01,2013-01-17 21:08:00,
2013-01-17 15:13:00,-2.6,-11.4,30.84,WNW,286,4.0,15.0,65,0.00,,---,0.00,VWS V13.01,2013-01-17 21:13:00,
2013-01-17 15:18:00,-2.7,-11.9,30.89,NW,309,7.0,13.0,64,0.00,,---,0.00,VWS V13.01,2013-01-17 21:18:00,
2013-01-17 15:24:00,-2.7,-11.9,30.89,WNW,290,10.0,16.0,64,0.00,,---,0.00,VWS V13.01,2013-01-17 21:24:00,
2013-01-17 15:29:00,-2.7,-11.9,30.89,WNW,302,11.0,16.0,64,0.00,,---,0.00,VWS V13.01,2013-01-17 21:29:00,
2013-01-17 15:34:00,-2.8,-11.6,30.89,West,279,8.0,13.0,65,0.00,,---,0.00,VWS V13.01,2013-01-17 21:34:00,
2013-01-17 15:39:00,-2.9,-11.7,30.89,WNW,299,3.0,13.0,65,0.00,,---,0.00,VWS V13.01,2013-01-17 21:39:00,
2013-01-17 15:45:00,-2.9,-11.7,30.89,West,277,7.0,15.0,65,0.00,,---,0.00,VWS V13.01,2013-01-17 21:45:00,
2013-01-17 15:50:00,-3.0,-11.8,30.89,WNW,294,0.0,16.0,65,0.00,,---,0.00,VWS V13.01,2013-01-17 21:50:00,
2013-01-17 15:55:00,-3.1,-11.9,30.89,NW,309,6.0,16.0,65,0.00,,---,0.00,VWS V13.01,2013-01-17 21:55:00,
2013-01-17 16:01:00,-3.2,-12.0,30.90,WNW,290,4.0,16.0,65,0.00,,---,0.00,VWS V13.01,2013-01-17 22:01:00,
2013-01-17 16:06:00,-3.2,-12.0,30.90,West,269,2.0,10.0,65,0.00,,---,0.00,VWS V13.01,2013-01-17 22:06:00,
2013-01-17 16:11:00,-3.5,-12.3,30.90,West,278,11.0,11.0,65,0.00,,---,0.00,VWS V13.01,2013-01-17 22:11:00,
2013-01-17 16:16:00,-3.8,-12.3,30.90,WNW,284,4.0,13.0,66,0.00,,---,0.00,VWS V13.01,2013-01-17 22:16:00,
2013-01-17 16:22:00,-4.0,-12.5,30.90,WNW,293,6.0,11.0,66,0.00,,---,0.00,VWS V13.01,2013-01-17 22:22:00,
2013-01-17 16:27:00,-4.2,-12.4,30.90,West,281,3.0,11.0,67,0.00,,---,0.00,VWS V13.01,2013-01-17 22:27:00,
2013-01-17 16:32:00,-4.4,-12.6,30.91,WNW,295,6.0,10.0,67,0.00,,---,0.00,VWS V13.01,2013-01-17 22:32:00,
2013-01-17 16:37:00,-4.5,-12.7,30.91,WNW,284,6.0,16.0,67,0.00,,---,0.00,VWS V13.01,2013-01-17 22:37:00,
2013-01-17 16:43:00,-4.6,-12.8,30.91,WNW,282,7.0,16.0,67,0.00,,---,0.00,VWS V13.01,2013-01-17 22:43:00,
2013-01-17 16:48:00,-4.7,-12.9,30.93,WNW,282,3.0,6.0,67,0.00,,---,0.00,VWS V13.01,2013-01-17 22:48:00,
2013-01-17 16:53:00,-4.9,-12.7,30.93,WNW,290,4.0,11.0,68,0.00,,---,0.00,VWS V13.01,2013-01-17 22:53:00,
2013-01-17 16:58:00,-5.0,-12.8,30.93,WNW,284,1.0,15.0,68,0.00,,---,0.00,VWS V13.01,2013-01-17 22:58:00,
2013-01-17 17:04:00,-5.1,-12.9,30.93,West,275,6.0,13.0,68,0.00,,---,0.00,VWS V13.01,2013-01-17 23:04:00,
2013-01-17 17:09:00,-5.3,-12.8,30.93,West,263,3.0,13.0,69,0.00,,---,0.00,VWS V13.01,2013-01-17 23:09:00,
2013-01-17 17:14:00,-5.5,-13.0,30.93,West,271,4.0,13.0,69,0.00,,---,0.00,VWS V13.01,2013-01-17 23:14:00,
2013-01-17 17:19:00,-5.7,-12.9,30.95,WNW,286,5.0,11.0,70,0.00,,---,0.00,VWS V13.01,2013-01-17 23:19:00,
2013-01-17 17:25:00,-5.9,-13.1,30.95,West,272,3.0,11.0,70,0.00,,---,0.00,VWS V13.01,2013-01-17 23:25:00,
2013-01-17 17:30:00,-6.1,-13.0,30.95,West,263,3.0,12.0,71,0.00,,---,0.00,VWS V13.01,2013-01-17 23:30:00,
2013-01-17 17:35:00,-6.2,-13.1,30.95,WSW,257,3.0,10.0,71,0.00,,---,0.00,VWS V13.01,2013-01-17 23:35:00,
2013-01-17 17:40:00,-6.2,-13.1,30.95,West,278,10.0,11.0,71,0.00,,---,0.00,VWS V13.01,2013-01-17 23:40:00,
2013-01-17 17:46:00,-6.1,-13.0,30.95,WNW,290,6.0,13.0,71,0.00,,---,0.00,VWS V13.01,2013-01-17 23:46:00,
2013-01-17 17:51:00,-6.1,-13.0,30.95,WNW,286,3.0,10.0,71,0.00,,---,0.00,VWS V13.01,2013-01-17 23:51:00,
2013-01-17 17:56:00,-6.1,-13.0,30.95,WNW,292,5.0,10.0,71,0.00,,---,0.00,VWS V13.01,2013-01-17 23:56:00,
2013-01-17 18:01:00,-5.9,-12.9,30.94,WNW,289,11.0,14.0,71,0.00,,---,0.00,VWS V13.01,2013-01-18 00:01:00,
2013-01-17 18:06:00,-5.9,-12.9,30.94,WSW,257,4.0,11.0,71,0.00,,---,0.00,VWS V13.01,2013-01-18 00:06:00,
2013-01-17 18:12:00,-6.0,-12.7,30.94,West,281,11.0,11.0,72,0.00,,---,0.00,VWS V13.01,2013-01-18 00:12:00,
2013-01-17 18:17:00,-6.0,-12.7,30.91,West,280,4.0,10.0,72,0.00,,---,0.00,VWS V13.01,2013-01-18 00:17:00,
2013-01-17 18:22:00,-6.1,-12.8,30.91,West,281,2.0,13.0,72,0.00,,---,0.00,VWS V13.01,2013-01-18 00:22:00,
2013-01-17 18:28:00,-6.2,-12.9,30.91,West,280,2.0,13.0,72,0.00,,---,0.00,VWS V13.01,2013-01-18 00:28:00,
2013-01-17 18:33:00,-6.2,-12.6,30.91,WNW,298,3.0,7.0,73,0.00,,---,0.00,VWS V13.01,2013-01-18 00:33:00,
2013-01-17 18:38:00,-6.3,-12.7,30.91,WNW,294,2.0,11.0,73,0.00,,---,0.00,VWS V13.01,2013-01-18 00:38:00,
2013-01-17 18:43:00,-6.4,-12.8,30.91,WNW,292,5.0,11.0,73,0.00,,---,0.00,VWS V13.01,2013-01-18 00:43:00,
2013-01-17 18:48:00,-6.5,-12.9,30.93,West,279,1.0,5.0,73,0.00,,---,0.00,VWS V13.01,2013-01-18 00:48:00,
2013-01-17 18:54:00,-6.6,-12.7,30.93,West,263,5.0,10.0,74,0.00,,---,0.00,VWS V13.01,2013-01-18 00:54:00,
2013-01-17 18:59:00,-6.7,-12.8,30.93,West,276,2.0,10.0,74,0.00,,---,0.00,VWS V13.01,2013-01-18 00:59:00,
2013-01-17 19:04:00,-6.7,-12.5,30.93,WNW,282,4.0,10.0,75,0.00,,---,0.00,VWS V13.01,2013-01-18 01:04:00,
2013-01-17 19:10:00,-6.7,-12.5,30.93,West,271,3.0,10.0,75,0.00,,---,0.00,VWS V13.01,2013-01-18 01:10:00,
2013-01-17 19:15:00,-6.6,-12.4,30.93,WNW,294,2.0,10.0,75,0.00,,---,0.00,VWS V13.01,2013-01-18 01:15:00,
2013-01-17 19:20:00,-6.7,-12.5,30.90,West,267,3.0,7.0,75,0.00,,---,0.00,VWS V13.01,2013-01-18 01:20:00,
2013-01-17 19:25:00,-6.6,-12.2,30.90,WNW,284,4.0,9.0,76,0.00,,---,0.00,VWS V13.01,2013-01-18 01:25:00,
2013-01-17 19:30:00,-6.5,-12.1,30.90,WNW,286,3.0,10.0,76,0.00,,---,0.00,VWS V13.01,2013-01-18 01:30:00,
2013-01-17 19:35:00,-6.6,-12.4,30.90,West,268,2.0,7.0,75,0.00,,---,0.00,VWS V13.01,2013-01-18 01:35:00,
2013-01-17 19:41:00,-6.6,-12.2,30.90,WNW,288,2.0,10.0,76,0.00,,---,0.00,VWS V13.01,2013-01-18 01:41:00,
2013-01-17 19:46:00,-6.7,-12.3,30.89,West,275,3.0,10.0,76,0.00,,---,0.00,VWS V13.01,2013-01-18 01:46:00,
2013-01-17 19:51:00,-6.7,-12.3,30.89,West,271,1.0,7.0,76,0.00,,---,0.00,VWS V13.01,2013-01-18 01:51:00,
2013-01-17 19:57:00,-6.8,-12.4,30.89,West,265,3.0,9.0,76,0.00,,---,0.00,VWS V13.01,2013-01-18 01:57:00,
2013-01-17 20:02:00,-6.9,-12.2,30.89,SW,236,2.0,4.0,77,0.00,,---,0.00,VWS V13.01,2013-01-18 02:02:00,
2013-01-17 20:07:00,-6.9,-12.2,30.89,West,276,3.0,9.0,77,0.00,,---,0.00,VWS V13.01,2013-01-18 02:07:00,
2013-01-17 20:12:00,-7.1,-12.4,30.89,WNW,294,3.0,9.0,77,0.00,,---,0.00,VWS V13.01,2013-01-18 02:12:00,
2013-01-17 20:18:00,-7.2,-12.5,30.87,West,268,3.0,5.0,77,0.00,,---,0.00,VWS V13.01,2013-01-18 02:18:00,
2013-01-17 20:23:00,-7.4,-12.7,30.87,West,261,1.0,5.0,77,0.00,,---,0.00,VWS V13.01,2013-01-18 02:23:00,
2013-01-17 20:28:00,-7.7,-12.7,30.87,West,261,0.0,5.0,78,0.00,,---,0.00,VWS V13.01,2013-01-18 02:28:00,
2013-01-17 20:34:00,-8.1,-13.1,30.87,West,261,0.0,2.0,78,0.00,,---,0.00,VWS V13.01,2013-01-18 02:34:00,
2013-01-17 20:39:00,-8.5,-13.5,30.87,West,261,1.0,2.0,78,0.00,,---,0.00,VWS V13.01,2013-01-18 02:39:00,
2013-01-17 20:44:00,-8.9,-13.9,30.87,West,261,2.0,2.0,78,0.00,,---,0.00,VWS V13.01,2013-01-18 02:44:00,
2013-01-17 20:49:00,-9.1,-13.8,30.89,West,263,0.0,2.0,79,0.00,,---,0.00,VWS V13.01,2013-01-18 02:49:00,
2013-01-17 20:54:00,-9.4,-14.1,30.89,West,262,0.0,3.0,79,0.00,,---,0.00,VWS V13.01,2013-01-18 02:54:00,
2013-01-17 21:00:00,-9.7,-14.4,30.89,West,262,0.0,4.0,79,0.00,,---,0.00,VWS V13.01,2013-01-18 03:00:00,
2013-01-17 21:05:00,-9.8,-14.5,30.89,West,262,0.0,3.0,79,0.00,,---,0.00,VWS V13.01,2013-01-18 03:05:00,
2013-01-17 21:10:00,-9.9,-14.4,30.89,West,261,1.0,3.0,80,0.00,,---,0.00,VWS V13.01,2013-01-18 03:10:00,
2013-01-17 21:15:00,-10.0,-14.5,30.89,West,261,1.0,4.0,80,0.00,,---,0.00,VWS V13.01,2013-01-18 03:15:00,
2013-01-17 21:20:00,-10.0,-14.5,30.87,West,261,1.0,2.0,80,0.00,,---,0.00,VWS V13.01,2013-01-18 03:20:00,
2013-01-17 21:26:00,-10.0,-14.5,30.87,West,261,1.0,3.0,80,0.00,,---,0.00,VWS V13.01,2013-01-18 03:26:00,
2013-01-17 21:31:00,-10.0,-14.5,30.87,West,260,2.0,3.0,80,0.00,,---,0.00,VWS V13.01,2013-01-18 03:31:00,
2013-01-17 21:36:00,-10.0,-14.5,30.87,West,259,2.0,3.0,80,0.00,,---,0.00,VWS V13.01,2013-01-18 03:36:00,
2013-01-17 21:42:00,-10.0,-14.5,30.87,WSW,257,2.0,4.0,80,0.00,,---,0.00,VWS V13.01,2013-01-18 03:42:00,
2013-01-17 21:47:00,-9.9,-14.4,30.87,WSW,256,1.0,3.0,80,0.00,,---,0.00,VWS V13.01,2013-01-18 03:47:00,
2013-01-17 21:52:00,-9.9,-14.4,30.87,WSW,251,1.0,6.0,80,0.00,,---,0.00,VWS V13.01,2013-01-18 03:52:00,
2013-01-17 21:57:00,-10.0,-14.5,30.87,WSW,251,0.0,6.0,80,0.00,,---,0.00,VWS V13.01,2013-01-18 03:57:00,
2013-01-17 22:02:00,-10.2,-11.9,30.87,WSW,251,2.0,2.0,92,0.00,,---,0.00,VWS V13.01,2013-01-18 04:02:00,
2013-01-17 22:08:00,-10.2,-14.7,30.87,WSW,251,0.0,3.0,80,0.00,,---,0.00,VWS V13.01,2013-01-18 04:08:00,
2013-01-17 22:13:00,-10.2,-14.4,30.87,WSW,250,1.0,5.0,81,0.00,,---,0.00,VWS V13.01,2013-01-18 04:13:00,
2013-01-17 22:18:00,-10.1,-14.3,30.85,WSW,250,1.0,3.0,81,0.00,,---,0.00,VWS V13.01,2013-01-18 04:18:00,
2013-01-17 22:24:00,-10.2,-14.4,30.85,WSW,250,1.0,3.0,81,0.00,,---,0.00,VWS V13.01,2013-01-18 04:24:00,
2013-01-17 22:29:00,-10.3,-14.8,30.85,WSW,250,1.0,3.0,80,0.00,,---,0.00,VWS V13.01,2013-01-18 04:29:00,
2013-01-17 22:34:00,-10.4,-14.9,30.84,WSW,250,1.0,2.0,80,0.00,,---,0.00,VWS V13.01,2013-01-18 04:34:00,
2013-01-17 22:39:00,-10.6,-15.1,30.84,WSW,250,0.0,2.0,80,0.00,,---,0.00,VWS V13.01,2013-01-18 04:39:00,
2013-01-17 22:45:00,-10.7,-15.1,30.84,WSW,250,0.0,2.0,80,0.00,,---,0.00,VWS V13.01,2013-01-18 04:45:00,
2013-01-17 22:50:00,-10.9,-15.3,30.83,WSW,250,0.0,1.0,80,0.00,,---,0.00,VWS V13.01,2013-01-18 04:50:00,
2013-01-17 22:55:00,-11.0,-15.2,30.83,WSW,250,0.0,2.0,81,0.00,,---,0.00,VWS V13.01,2013-01-18 04:55:00,
2013-01-17 23:00:00,-11.0,-15.2,30.83,WSW,250,0.0,2.0,81,0.00,,---,0.00,VWS V13.01,2013-01-18 05:00:00,
2013-01-17 23:01:00,-11.0,-15.2,30.84,WSW,250,2.0,2.0,81,0.00,,---,0.00,VWS V13.01,2013-01-18 05:01:00,
2013-01-17 23:03:00,-11.0,-15.2,30.84,WSW,250,1.0,2.0,81,0.00,,---,0.00,VWS V13.01,2013-01-18 05:03:00,
2013-01-17 23:08:00,-11.0,-15.2,30.84,WSW,250,2.0,3.0,81,0.00,,---,0.00,VWS V13.01,2013-01-18 05:08:00,
2013-01-17 23:13:00,-11.0,-15.2,30.84,WSW,250,0.0,3.0,81,0.00,,---,0.00,VWS V13.01,2013-01-18 05:13:00,
2013-01-17 23:18:00,-11.1,-15.3,30.82,WSW,250,0.0,2.0,81,0.00,,---,0.00,VWS V13.01,2013-01-18 05:18:00,
2013-01-17 23:24:00,-11.2,-15.6,30.82,WSW,250,1.0,2.0,80,0.00,,---,0.00,VWS V13.01,2013-01-18 05:24:00,
2013-01-17 23:29:00,-11.3,-15.7,30.82,WSW,250,0.0,2.0,80,0.00,,---,0.00,VWS V13.01,2013-01-18 05:29:00,
2013-01-17 23:34:00,-11.5,-15.9,30.82,WSW,250,0.0,0.0,80,0.00,,---,0.00,VWS V13.01,2013-01-18 05:34:00,
2013-01-17 23:39:00,-11.8,-16.2,30.82,WSW,250,0.0,0.0,80,0.00,,---,0.00,VWS V13.01,2013-01-18 05:39:00,
2013-01-17 23:45:00,-12.4,-17.3,30.82,WSW,250,0.0,0.0,78,0.00,,---,0.00,VWS V13.01,2013-01-18 05:45:00,
2013-01-17 23:50:00,-13.6,-19.0,30.83,WSW,250,0.0,0.0,76,0.00,,---,0.00,VWS V13.01,2013-01-18 05:50:00,
2013-01-17 23:55:00,-14.2,-19.3,30.83,WSW,250,0.0,0.0,77,0.00,,---,0.00,VWS V13.01,2013-01-18 05:55:00,